Time;durP1;ratioP1;P1;durP2;ratioP2;P2;SDS_P1;SDS_P2;PMS_P1;PMS_P2;Temp;Humidity;BMP_temperature;BMP_pressure;BME280_temperature;BME280_humidity;BME280_pressure;Samples;Min_cycle;Max_cycle;Signal;HPM_P1;HPM_P2
2022/06/29 00:01:00;;;;;;;0.82;0.43;;;;;;;24.32;42.83;101426.88;4933087;29;20043;-77
2022/06/29 00:03:28;;;;;;;1.20;0.50;;;;;;;24.23;42.30;101422.63;4929974;29;21195;-78
2022/06/29 00:05:57;;;;;;;2.58;0.60;;;;;;;24.18;42.18;101420.94;4932159;29;20119;-81
2022/06/29 00:08:25;;;;;;;2.10;0.60;;;;;;;24.13;42.06;101412.22;4932093;29;20055;-78
2022/06/29 00:10:55;;;;;;;2.03;0.73;;;;;;;24.10;41.95;101417.53;4931068;29;20095;-79
2022/06/29 00:13:24;;;;;;;0.95;0.50;;;;;;;24.03;42.94;101419.44;4931229;29;20578;-79
2022/06/29 00:15:52;;;;;;;1.05;0.47;;;;;;;23.97;42.24;101419.53;4930991;29;20530;-80
2022/06/29 00:18:21;;;;;;;1.60;0.50;;;;;;;23.96;42.36;101416.03;4933359;29;20070;-80
2022/06/29 00:20:49;;;;;;;3.70;0.70;;;;;;;23.90;42.33;101413.47;4931941;29;20051;-81
2022/06/29 00:23:18;;;;;;;0.90;0.65;;;;;;;23.85;42.28;101415.31;4934697;28;20932;-83
2022/06/29 00:25:46;;;;;;;1.98;0.50;;;;;;;23.82;42.63;101412.69;4933653;29;20048;-79
2022/06/29 00:28:16;;;;;;;1.00;0.40;;;;;;;23.77;42.38;101417.19;4927012;29;20454;-80
2022/06/29 00:30:45;;;;;;;4.50;0.93;;;;;;;23.78;42.86;101411.00;4931100;29;20085;-78
2022/06/29 00:33:13;;;;;;;1.15;0.60;;;;;;;23.77;42.78;101415.41;4928775;29;20502;-78
2022/06/29 00:35:42;;;;;;;5.18;0.70;;;;;;;23.78;44.29;101416.31;4921836;29;20095;-82
2022/06/29 00:38:10;;;;;;;0.60;0.50;;;;;;;23.80;43.62;101419.75;4932104;29;20083;-81
2022/06/29 00:40:39;;;;;;;2.90;0.90;;;;;;;23.78;42.99;101413.66;4932405;29;20111;-80
2022/06/29 00:43:07;;;;;;;2.20;1.05;;;;;;;23.81;43.00;101414.47;4928789;29;20048;-82
2022/06/29 00:45:37;;;;;;;1.95;1.00;;;;;;;24.00;42.48;101409.75;4937087;29;20040;-77
2022/06/29 00:48:06;;;;;;;2.40;0.80;;;;;;;24.14;41.65;101404.25;4930264;29;20052;-79
2022/06/29 00:50:35;;;;;;;1.42;0.80;;;;;;;24.26;43.00;101408.50;4922876;29;20039;-84
2022/06/29 00:53:05;;;;;;;2.45;0.98;;;;;;;24.35;41.84;101397.75;4927035;29;20473;-80
2022/06/29 00:55:34;;;;;;;2.55;0.82;;;;;;;24.24;42.10;101405.00;4929580;29;20040;-78
2022/06/29 00:58:05;;;;;;;2.70;1.10;;;;;;;24.11;41.81;101403.44;4930766;29;20056;-78
2022/06/29 01:00:34;;;;;;;1.80;0.95;;;;;;;23.98;41.57;101402.75;4929970;29;20498;-78
2022/06/29 01:03:05;;;;;;;3.60;1.08;;;;;;;23.84;42.80;101402.97;4930799;29;20067;-79
2022/06/29 01:05:33;;;;;;;1.73;0.80;;;;;;;23.86;42.71;101398.53;4932120;29;20099;-79
2022/06/29 01:08:02;;;;;;;2.97;0.90;;;;;;;23.88;42.45;101395.88;4931400;29;20059;-80
2022/06/29 01:10:30;;;;;;;1.45;0.77;;;;;;;23.88;42.61;101396.75;4931152;29;20083;-81
2022/06/29 01:12:59;;;;;;;1.60;0.90;;;;;;;23.90;42.92;101394.09;4929630;29;20048;-80
2022/06/29 01:15:27;;;;;;;2.30;1.10;;;;;;;23.91;43.06;101401.13;4929738;29;20040;-76
2022/06/29 01:17:56;;;;;;;5.03;0.90;;;;;;;23.89;42.98;101397.63;4929725;29;20111;-77
2022/06/29 01:20:26;;;;;;;3.03;0.95;;;;;;;23.85;42.82;101402.09;4931375;29;20044;-75
2022/06/29 01:22:56;;;;;;;3.60;1.10;;;;;;;23.86;42.32;101403.81;4933140;29;20558;-76
2022/06/29 01:25:25;;;;;;;2.35;1.00;;;;;;;23.86;43.11;101398.53;4932285;28;20781;-77
2022/06/29 01:27:53;;;;;;;2.35;0.80;;;;;;;23.88;43.13;101403.81;4921042;29;20055;-76
2022/06/29 01:30:22;;;;;;;4.82;1.20;;;;;;;23.87;42.65;101408.22;4931298;29;20048;-77
2022/06/29 01:32:50;;;;;;;2.42;0.93;;;;;;;23.83;44.01;101410.03;4913956;29;20127;-74
2022/06/29 01:35:22;;;;;;;4.50;1.20;;;;;;;23.84;45.07;101402.97;4927078;29;20044;-77
2022/06/29 01:37:51;;;;;;;2.35;1.10;;;;;;;23.82;43.39;101408.31;4918826;29;20534;-76
2022/06/29 01:40:21;;;;;;;3.25;0.82;;;;;;;23.80;42.91;101414.47;4925357;29;20135;-76
2022/06/29 01:42:50;;;;;;;2.03;1.00;;;;;;;23.72;43.11;101411.94;4922856;29;20506;-74
2022/06/29 01:45:18;;;;;;;2.20;1.10;;;;;;;23.65;43.06;101407.63;4936528;29;20056;-75
2022/06/29 01:47:46;;;;;;;1.77;1.20;;;;;;;23.57;43.59;101398.94;4931593;29;20099;-74
2022/06/29 01:50:15;;;;;;;3.70;1.00;;;;;;;23.50;43.39;101400.81;4920476;29;20106;-77
2022/06/29 01:52:43;;;;;;;1.92;0.95;;;;;;;23.43;43.66;101396.47;4916722;29;20063;-78
2022/06/29 01:55:12;;;;;;;2.05;1.00;;;;;;;23.35;43.33;101404.53;4929431;29;20056;-76
2022/06/29 01:57:42;;;;;;;3.80;1.08;;;;;;;23.30;43.68;101409.00;4936504;29;20502;-76
2022/06/29 02:00:12;;;;;;;2.53;1.08;;;;;;;23.26;44.30;101417.84;4928313;29;20048;-80
2022/06/29 02:02:47;;;;;;;2.33;0.88;;;;;;;23.17;43.92;101418.81;4928105;29;20043;-78
2022/06/29 02:05:16;;;;;;;3.92;1.17;;;;;;;23.08;44.81;101413.66;4931677;29;20111;-81
2022/06/29 02:07:44;;;;;;;2.33;0.80;;;;;;;23.00;44.64;101421.66;4931326;29;20387;-78
2022/06/29 02:10:12;;;;;;;2.47;1.25;;;;;;;22.94;44.92;101420.84;4932580;29;20145;-78
2022/06/29 02:12:43;;;;;;;3.95;1.30;;;;;;;22.88;45.36;101426.16;4933519;29;20036;-80
2022/06/29 02:15:12;;;;;;;1.67;0.85;;;;;;;22.83;44.73;101417.44;4935950;29;20045;-80
2022/06/29 02:17:40;;;;;;;2.97;1.05;;;;;;;22.78;45.34;101426.25;4944577;29;20039;-85
2022/06/29 02:20:11;;;;;;;6.70;1.17;;;;;;;22.69;45.10;101421.09;4926998;29;20090;-79
2022/06/29 02:22:40;;;;;;;2.38;0.85;;;;;;;22.64;45.31;101414.13;4934129;29;20130;-81
2022/06/29 02:25:10;;;;;;;2.70;1.40;;;;;;;22.57;45.40;101411.53;4936538;28;20490;-76
2022/06/29 02:27:42;;;;;;;4.07;1.30;;;;;;;22.50;45.00;101415.13;4932682;29;20502;-77
2022/06/29 02:30:13;;;;;;;2.45;1.08;;;;;;;22.47;45.10;101417.81;4926946;29;20103;-78
2022/06/29 02:35:41;;;;;;;2.85;1.15;;;;;;;22.29;46.58;101418.84;4889762;29;20045;-80
2022/06/29 02:38:09;;;;;;;2.58;1.13;;;;;;;22.16;46.35;101415.38;4883068;29;20048;-80
2022/06/29 02:40:38;;;;;;;1.92;1.00;;;;;;;22.08;45.78;101416.31;4904161;29;20044;-80
2022/06/29 02:43:08;;;;;;;2.58;0.90;;;;;;;22.00;46.64;101418.16;4931343;29;20094;-78
2022/06/29 02:45:37;;;;;;;3.60;1.58;;;;;;;21.92;46.69;101419.09;4943817;29;20051;-78
2022/06/29 02:48:05;;;;;;;2.40;1.05;;;;;;;21.89;47.29;101420.84;4933180;29;20044;-80
2022/06/29 02:50:34;;;;;;;2.17;0.90;;;;;;;21.79;46.95;101420.03;4933805;29;20047;-77
2022/06/29 02:53:02;;;;;;;3.33;0.90;;;;;;;21.66;46.98;101424.50;4933702;29;20518;-81
2022/06/29 02:55:31;;;;;;;3.53;1.00;;;;;;;21.58;47.85;101422.78;4934315;29;20071;-79
2022/06/29 02:57:59;;;;;;;5.10;1.00;;;;;;;21.48;47.81;101422.84;4935822;29;20134;-79
2022/06/29 03:00:30;;;;;;;2.28;1.00;;;;;;;21.41;47.92;101428.16;4927727;29;20044;-80
2022/06/29 03:02:58;;;;;;;3.45;0.82;;;;;;;21.36;48.41;101430.75;4935542;29;20040;-78
2022/06/29 03:05:27;;;;;;;1.35;1.08;;;;;;;21.31;48.22;101432.53;4941202;29;20081;-82
2022/06/29 03:07:55;;;;;;;3.05;0.98;;;;;;;21.23;48.05;101423.78;4932565;29;20043;-77
2022/06/29 03:10:23;;;;;;;2.25;1.30;;;;;;;21.17;48.00;101431.72;4933417;29;20090;-76
2022/06/29 03:12:52;;;;;;;2.13;1.00;;;;;;;21.10;48.24;101429.13;4927796;29;20514;-80
2022/06/29 03:15:21;;;;;;;1.65;1.00;;;;;;;21.03;48.38;101427.38;4927239;29;20040;-77
2022/06/29 03:17:51;;;;;;;3.85;1.33;;;;;;;20.96;49.09;101438.81;4930850;29;20059;-77
2022/06/29 03:20:19;;;;;;;3.20;0.95;;;;;;;20.86;49.07;101434.44;4934683;29;20073;-75
2022/06/29 03:22:48;;;;;;;2.60;1.00;;;;;;;20.77;49.51;101434.44;4932919;29;20055;-77
2022/06/29 03:25:16;;;;;;;2.78;1.17;;;;;;;20.70;49.07;101437.09;4933679;28;20063;-76
2022/06/29 03:27:45;;;;;;;4.28;1.05;;;;;;;20.60;49.46;101432.72;4932652;29;20048;-79
2022/06/29 03:30:14;;;;;;;4.53;1.02;;;;;;;20.51;49.27;101425.69;4931603;29;20102;-78
2022/06/29 03:32:43;;;;;;;2.30;1.08;;;;;;;20.41;49.59;101433.56;4930826;29;20103;-79
2022/06/29 03:35:13;;;;;;;1.55;0.98;;;;;;;20.30;50.00;101426.56;4931276;29;20091;-78
2022/06/29 03:37:42;;;;;;;3.63;1.35;;;;;;;20.19;50.27;101423.06;4926991;29;20051;-80
2022/06/29 03:40:11;;;;;;;4.22;1.25;;;;;;;20.10;50.36;101425.69;4928385;29;20047;-75
2022/06/29 03:42:40;;;;;;;3.83;1.20;;;;;;;19.98;50.78;101421.31;4924616;29;20099;-78
2022/06/29 03:45:09;;;;;;;2.65;1.10;;;;;;;19.88;50.97;101420.44;4935234;29;20138;-76
2022/06/29 03:47:38;;;;;;;1.38;1.00;;;;;;;19.79;51.25;101425.66;4932340;29;20075;-76
2022/06/29 03:50:08;;;;;;;2.58;1.20;;;;;;;19.68;52.12;101422.09;4931826;29;20062;-77
2022/06/29 03:52:39;;;;;;;3.45;1.10;;;;;;;19.64;52.08;101431.69;4921443;29;20099;-78
2022/06/29 03:55:08;;;;;;;2.63;1.08;;;;;;;19.51;52.27;101416.78;4931494;29;20115;-77
2022/06/29 03:57:36;;;;;;;2.22;1.00;;;;;;;19.52;52.51;101431.66;4921476;29;20047;-77
2022/06/29 04:00:06;;;;;;;3.55;1.30;;;;;;;19.46;52.43;101426.38;4932148;29;20044;-77
2022/06/29 04:02:34;;;;;;;2.90;1.33;;;;;;;19.38;52.94;101429.00;4939148;29;20050;-77
2022/06/29 04:05:04;;;;;;;3.78;1.25;;;;;;;19.33;53.57;101425.44;4932315;29;20596;-77
2022/06/29 04:07:33;;;;;;;2.28;1.17;;;;;;;19.27;53.17;101430.69;4931009;29;20573;-79
2022/06/29 04:10:03;;;;;;;2.08;1.13;;;;;;;19.19;53.37;101429.78;4931850;29;20043;-76
2022/06/29 04:12:32;;;;;;;3.47;1.23;;;;;;;19.12;54.12;101435.84;4934613;29;20048;-82
2022/06/29 04:15:01;;;;;;;1.27;0.98;;;;;;;19.04;54.12;101439.31;4931790;29;20515;-77
2022/06/29 04:17:30;;;;;;;3.00;1.13;;;;;;;18.99;54.34;101446.28;4927598;29;20047;-78
2022/06/29 04:19:58;;;;;;;2.47;1.02;;;;;;;18.90;54.57;101446.25;4927601;29;20056;-77
2022/06/29 04:22:27;;;;;;;3.72;1.40;;;;;;;18.84;54.62;101443.56;4931439;29;20043;-76
2022/06/29 04:24:55;;;;;;;3.95;1.30;;;;;;;18.72;54.92;101435.59;4934270;28;20510;-76
2022/06/29 04:27:25;;;;;;;2.30;1.13;;;;;;;18.73;55.54;101445.22;4935313;29;20050;-76
2022/06/29 04:29:54;;;;;;;1.77;1.00;;;;;;;18.68;55.36;101450.41;4938160;29;20112;-80
2022/06/29 04:32:22;;;;;;;2.65;1.30;;;;;;;18.62;55.85;101451.28;4932098;29;20043;-79
2022/06/29 04:34:51;;;;;;;3.15;1.30;;;;;;;18.58;56.34;101449.47;4930592;29;20047;-79
2022/06/29 04:37:19;;;;;;;3.65;1.25;;;;;;;18.53;56.56;101451.19;4931184;29;20048;-76
2022/06/29 04:39:47;;;;;;;7.03;1.40;;;;;;;18.46;56.53;101454.59;4924008;29;20056;-75
2022/06/29 04:42:16;;;;;;;3.85;1.20;;;;;;;18.39;56.99;101455.44;4927879;29;20537;-76
2022/06/29 04:44:46;;;;;;;2.95;1.63;;;;;;;18.34;57.40;101459.75;4934142;29;20051;-75
2022/06/29 04:47:14;;;;;;;2.85;1.10;;;;;;;18.29;57.46;101457.09;4939282;29;20047;-75
2022/06/29 04:49:43;;;;;;;2.35;1.42;;;;;;;18.24;57.76;101457.94;4929996;29;20222;-75
2022/06/29 04:52:12;;;;;;;3.05;1.08;;;;;;;18.19;58.35;101465.75;4929854;29;20052;-77
2022/06/29 04:54:40;;;;;;;4.88;1.10;;;;;;;18.13;58.28;101463.94;4931649;29;20554;-76
2022/06/29 04:57:08;;;;;;;3.65;1.75;;;;;;;18.12;58.43;101466.53;4935501;29;20518;-75
2022/06/29 04:59:37;;;;;;;4.43;1.13;;;;;;;18.07;58.39;101466.47;4930081;29;20099;-74
2022/06/29 05:02:07;;;;;;;3.28;1.27;;;;;;;18.00;58.86;101468.19;4931167;29;20597;-75
2022/06/29 05:04:43;;;;;;;2.60;1.33;;;;;;;17.95;58.58;101474.22;4928668;29;20051;-75
2022/06/29 05:07:12;;;;;;;2.15;1.05;;;;;;;17.89;59.28;101471.53;4931318;29;20127;-74
2022/06/29 05:09:40;;;;;;;4.03;1.40;;;;;;;17.86;59.75;101474.13;4927014;29;20044;-75
2022/06/29 05:12:09;;;;;;;3.17;1.20;;;;;;;17.81;60.05;101489.78;4923031;29;20111;-75
2022/06/29 05:14:46;;;;;;;3.15;1.27;;;;;;;17.74;60.60;101483.56;4928534;29;20080;-75
2022/06/29 05:17:16;;;;;;;3.10;0.93;;;;;;;17.68;60.46;101488.72;4931676;29;20107;-76
2022/06/29 05:19:44;;;;;;;3.33;1.25;;;;;;;17.61;61.53;101489.50;4920933;29;20511;-75
2022/06/29 05:22:13;;;;;;;3.08;1.00;;;;;;;17.57;61.11;101498.19;4923875;29;20078;-75
2022/06/29 05:24:54;;;;;;;2.83;1.30;;;;;;;17.51;61.62;101490.25;4929839;28;20091;-75
2022/06/29 05:27:23;;;;;;;3.63;1.52;;;;;;;17.43;61.24;101487.56;4930767;29;20051;-75
2022/06/29 05:29:51;;;;;;;2.85;1.45;;;;;;;17.36;61.81;101486.59;4928944;29;20585;-76
2022/06/29 05:32:22;;;;;;;3.28;1.30;;;;;;;17.32;62.04;101489.16;4929545;29;20052;-76
2022/06/29 05:34:50;;;;;;;2.03;1.00;;;;;;;17.28;62.33;101495.19;4921191;29;20095;-76
2022/06/29 05:37:18;;;;;;;2.08;1.30;;;;;;;17.22;62.99;101498.59;4925646;29;20119;-76
2022/06/29 05:39:47;;;;;;;2.50;1.33;;;;;;;17.16;63.38;101501.13;4928979;29;20055;-75
2022/06/29 05:42:16;;;;;;;1.92;1.15;;;;;;;17.11;62.94;101494.94;4927275;29;20108;-75
2022/06/29 05:44:44;;;;;;;3.90;1.30;;;;;;;17.04;63.46;101498.31;4931622;29;20055;-75
2022/06/29 05:47:14;;;;;;;2.67;1.25;;;;;;;16.98;63.78;101493.91;4930664;29;20060;-75
2022/06/29 05:49:44;;;;;;;2.60;1.45;;;;;;;16.95;64.95;101493.84;4928412;29;20044;-76
2022/06/29 05:52:13;;;;;;;2.33;1.42;;;;;;;16.90;66.10;101485.03;4925335;29;20079;-75
2022/06/29 05:54:41;;;;;;;3.28;1.33;;;;;;;16.85;66.83;101487.59;4933663;29;20063;-75
2022/06/29 05:57:10;;;;;;;2.78;1.13;;;;;;;16.80;66.90;101494.47;4936683;29;20127;-76
2022/06/29 05:59:38;;;;;;;3.35;1.52;;;;;;;16.73;67.40;101487.38;4935246;29;20315;-75
2022/06/29 06:02:06;;;;;;;2.55;1.15;;;;;;;16.64;67.42;101497.69;4932397;29;20055;-76
2022/06/29 06:04:35;;;;;;;2.47;1.20;;;;;;;16.58;68.05;101489.72;4932331;29;20048;-75
2022/06/29 06:07:05;;;;;;;1.73;1.05;;;;;;;16.55;67.67;101488.81;4928713;29;20123;-76
2022/06/29 06:09:34;;;;;;;2.17;1.23;;;;;;;16.55;68.13;101493.16;4930936;29;20118;-75
2022/06/29 06:12:02;;;;;;;2.65;1.10;;;;;;;16.50;68.06;101495.72;4930562;29;20139;-75
2022/06/29 06:14:30;;;;;;;3.33;1.17;;;;;;;16.46;68.57;101496.50;4934695;29;20178;-74
2022/06/29 06:16:59;;;;;;;2.72;1.13;;;;;;;16.43;68.61;101499.06;4926708;29;20048;-75
2022/06/29 06:19:27;;;;;;;4.10;1.30;;;;;;;16.40;69.15;101499.03;4929891;29;20450;-74
2022/06/29 06:21:56;;;;;;;1.35;1.00;;;;;;;16.38;69.33;101499.81;4928973;29;20092;-75
2022/06/29 06:24:26;;;;;;;7.57;1.67;;;;;;;16.32;69.81;101501.47;4930969;28;20058;-74
2022/06/29 06:26:54;;;;;;;3.25;1.83;;;;;;;16.26;70.21;101497.88;4925105;29;20526;-74
2022/06/29 06:29:23;;;;;;;2.88;0.93;;;;;;;16.16;70.98;101503.81;4932802;29;20052;-74
2022/06/29 06:31:51;;;;;;;1.80;1.25;;;;;;;16.10;70.47;101510.69;4918509;29;20124;-74
2022/06/29 06:34:20;;;;;;;2.25;1.33;;;;;;;16.08;71.35;101501.94;4928603;29;20040;-74
2022/06/29 06:36:48;;;;;;;3.53;1.40;;;;;;;16.04;70.97;101505.34;4926734;29;21073;-74
2022/06/29 06:39:16;;;;;;;2.15;1.10;;;;;;;15.94;71.24;101498.16;4933567;29;20115;-74
2022/06/29 06:41:45;;;;;;;1.73;1.10;;;;;;;15.91;72.28;101503.31;4927898;29;20481;-73
2022/06/29 06:44:14;;;;;;;3.35;1.50;;;;;;;15.87;72.86;101506.72;4937083;29;20043;-74
2022/06/29 06:46:46;;;;;;;2.72;1.27;;;;;;;15.83;72.40;101510.16;4933078;29;20043;-75
2022/06/29 06:49:15;;;;;;;3.13;1.38;;;;;;;15.75;72.63;101507.38;4933808;29;20134;-75
2022/06/29 06:51:43;;;;;;;3.38;1.25;;;;;;;15.72;73.00;101509.06;4923140;29;20115;-74
2022/06/29 06:54:12;;;;;;;3.63;1.30;;;;;;;15.68;73.34;101510.66;4926923;29;20123;-74
2022/06/29 06:56:40;;;;;;;2.08;1.30;;;;;;;15.64;73.87;101514.94;4934027;29;20048;-74
2022/06/29 06:59:10;;;;;;;3.42;1.35;;;;;;;15.58;73.84;101499.16;4930890;29;20056;-74
2022/06/29 07:01:39;;;;;;;4.30;1.65;;;;;;;15.58;73.63;101504.38;4929493;29;20056;-74
2022/06/29 07:04:07;;;;;;;5.15;1.40;;;;;;;15.53;73.81;101513.84;4933639;29;20086;-73
2022/06/29 07:06:36;;;;;;;3.05;1.48;;;;;;;15.52;73.92;101522.50;4928502;29;20126;-75
2022/06/29 07:09:04;;;;;;;2.05;1.55;;;;;;;15.50;74.20;101521.59;4929906;29;20051;-75
2022/06/29 07:11:33;;;;;;;2.17;1.30;;;;;;;15.47;73.65;101511.97;4925513;29;20458;-74
2022/06/29 07:14:01;;;;;;;2.25;1.23;;;;;;;15.40;74.68;101512.69;4933690;29;20138;-75
2022/06/29 07:16:31;;;;;;;3.55;1.40;;;;;;;15.29;75.62;101515.06;4933093;29;20099;-75
2022/06/29 07:19:00;;;;;;;3.30;1.42;;;;;;;15.16;76.83;101513.00;4927162;29;20560;-74
2022/06/29 07:21:29;;;;;;;2.58;1.33;;;;;;;15.04;77.18;101517.94;4931319;29;20054;-75
2022/06/29 07:23:58;;;;;;;2.90;1.70;;;;;;;14.99;77.04;101516.97;4927216;29;20066;-74
2022/06/29 07:26:27;;;;;;;3.17;1.33;;;;;;;14.99;77.64;101511.75;4933299;28;20047;-75
2022/06/29 07:28:55;;;;;;;2.15;1.10;;;;;;;14.98;77.88;101509.97;4933645;29;20107;-76
2022/06/29 07:31:24;;;;;;;6.70;1.50;;;;;;;14.97;77.32;101514.31;4932189;29;20051;-75
2022/06/29 07:33:54;;;;;;;4.90;1.23;;;;;;;14.97;77.19;101509.09;4932857;29;20538;-75
2022/06/29 07:36:22;;;;;;;2.08;1.23;;;;;;;14.99;76.44;101516.97;4931608;29;20044;-76
2022/06/29 07:38:51;;;;;;;2.35;1.30;;;;;;;14.95;76.13;101513.41;4925949;29;20462;-75
2022/06/29 07:41:19;;;;;;;3.10;1.35;;;;;;;14.90;77.05;101511.53;4931877;29;20043;-74
2022/06/29 07:43:48;;;;;;;4.40;1.48;;;;;;;14.86;77.20;101511.44;4931964;29;20051;-75
2022/06/29 07:46:17;;;;;;;3.42;1.27;;;;;;;14.85;77.38;101514.03;4943055;29;20051;-74
2022/06/29 07:48:46;;;;;;;3.63;1.65;;;;;;;14.82;77.34;101514.84;4933579;29;20051;-74
2022/06/29 07:51:16;;;;;;;5.68;1.67;;;;;;;14.83;77.58;101516.59;4934215;29;20052;-74
2022/06/29 07:53:44;;;;;;;2.58;1.13;;;;;;;14.80;76.84;101518.25;4923742;29;20051;-73
2022/06/29 07:56:13;;;;;;;2.33;1.17;;;;;;;14.77;76.78;101516.44;4933671;29;20107;-74
2022/06/29 07:58:41;;;;;;;3.50;1.20;;;;;;;14.72;76.56;101519.78;4926987;29;20523;-74
2022/06/29 08:01:10;;;;;;;3.20;1.20;;;;;;;14.67;77.16;101517.06;4924021;29;20498;-73
2022/06/29 08:03:38;;;;;;;3.58;1.38;;;;;;;14.65;77.50;101521.34;4923530;29;20078;-73
2022/06/29 08:06:07;;;;;;;3.28;1.52;;;;;;;14.64;77.99;101517.00;4931764;29;20059;-73
2022/06/29 08:08:37;;;;;;;3.20;1.63;;;;;;;14.61;78.00;101512.59;4921044;29;20131;-73
2022/06/29 08:11:06;;;;;;;1.75;1.00;;;;;;;14.56;78.42;101518.53;4928034;29;20115;-73
2022/06/29 08:13:35;;;;;;;2.95;1.10;;;;;;;14.53;78.12;101521.03;4922986;29;20075;-72
2022/06/29 08:16:03;;;;;;;4.30;1.52;;;;;;;14.49;78.45;101513.97;4931588;29;20506;-73
2022/06/29 08:18:32;;;;;;;5.15;1.75;;;;;;;14.45;77.85;101508.69;4921883;29;20099;-73
2022/06/29 08:21:00;;;;;;;2.22;1.30;;;;;;;14.43;77.89;101505.16;4932256;29;20085;-73
2022/06/29 08:23:30;;;;;;;3.90;1.55;;;;;;;14.41;77.92;101516.38;4926851;29;20099;-73
2022/06/29 08:26:00;;;;;;;2.90;1.08;;;;;;;14.39;78.65;101518.94;4928498;28;20585;-74
2022/06/29 08:28:29;;;;;;;2.95;1.40;;;;;;;14.37;78.27;101518.00;4926663;29;20131;-73
2022/06/29 08:30:57;;;;;;;4.43;1.42;;;;;;;14.34;78.98;101515.34;4927536;29;20135;-74
2022/06/29 08:33:26;;;;;;;1.65;1.10;;;;;;;14.33;79.18;101508.34;4924850;29;20145;-73
2022/06/29 08:35:54;;;;;;;5.28;1.50;;;;;;;14.31;78.56;101511.75;4929037;29;20047;-73
2022/06/29 08:38:23;;;;;;;3.35;1.38;;;;;;;14.28;79.15;101512.56;4924436;29;20099;-73
2022/06/29 08:40:51;;;;;;;1.45;1.15;;;;;;;14.29;79.59;101516.03;4921117;28;20107;-74
2022/06/29 08:43:22;;;;;;;1.40;1.17;;;;;;;14.29;79.93;101511.72;4928717;29;20103;-73
2022/06/29 08:45:53;;;;;;;2.88;1.30;;;;;;;14.29;79.58;101516.91;4925508;29;20052;-73
2022/06/29 08:48:22;;;;;;;2.90;1.25;;;;;;;14.28;79.80;101509.97;4931292;29;20047;-74
2022/06/29 08:50:52;;;;;;;4.40;1.50;;;;;;;14.27;79.14;101510.81;4932046;29;20084;-73
2022/06/29 08:53:22;;;;;;;2.85;1.52;;;;;;;14.26;79.26;101506.44;4918494;29;20040;-72
2022/06/29 08:55:52;;;;;;;2.17;1.50;;;;;;;14.25;79.66;101515.97;4929055;29;20319;-73
2022/06/29 08:58:23;;;;;;;3.88;1.60;;;;;;;14.27;80.02;101513.41;4920160;29;20053;-74
2022/06/29 09:00:52;;;;;;;1.60;1.40;;;;;;;14.26;80.21;101511.66;4932221;29;20138;-74
2022/06/29 09:03:22;;;;;;;3.15;1.50;;;;;;;14.26;80.75;101506.44;4928345;29;20522;-74
2022/06/29 09:05:54;;;;;;;3.30;1.63;;;;;;;14.19;80.63;101491.50;4930641;29;20111;-74
2022/06/29 09:08:23;;;;;;;3.15;1.40;;;;;;;14.28;80.59;101503.88;4927062;29;20043;-74
2022/06/29 09:10:51;;;;;;;6.30;1.98;;;;;;;14.28;80.70;101509.97;4931483;29;20051;-74
2022/06/29 09:13:26;;;;;;;6.53;1.95;;;;;;;14.30;80.53;101512.63;4928193;29;20189;-74
2022/06/29 09:16:04;;;;;;;3.92;2.20;;;;;;;14.29;79.92;101514.31;4927471;29;20110;-74
2022/06/29 09:18:34;;;;;;;3.95;2.10;;;;;;;14.30;80.28;101513.50;4934689;29;20056;-73
2022/06/29 09:21:04;;;;;;;3.30;2.15;;;;;;;14.31;79.87;101512.63;4933857;29;20052;-74
2022/06/29 09:23:34;;;;;;;2.42;1.92;;;;;;;14.31;80.31;101517.84;4934028;29;20048;-73
2022/06/29 09:26:02;;;;;;;5.50;1.85;;;;;;;14.30;80.45;101516.09;4935126;28;20091;-74
2022/06/29 09:28:34;;;;;;;5.10;2.25;;;;;;;14.29;80.14;101509.09;4928695;29;20538;-74
2022/06/29 09:31:02;;;;;;;7.35;2.55;;;;;;;14.34;79.87;101514.44;4943556;29;20048;-74
2022/06/29 09:33:32;;;;;;;6.18;2.33;;;;;;;14.36;80.04;101513.66;4939282;29;20055;-74
2022/06/29 09:36:09;;;;;;;3.00;2.20;;;;;;;14.37;80.24;101515.41;4932321;29;20051;-74
2022/06/29 09:38:39;;;;;;;2.70;1.70;;;;;;;14.39;80.50;101511.13;4941264;29;20107;-74
2022/06/29 09:41:09;;;;;;;5.05;2.00;;;;;;;14.37;80.25;101515.41;4937771;29;20048;-75
2022/06/29 09:43:40;;;;;;;2.72;1.77;;;;;;;14.37;80.95;101518.00;4949716;29;20176;-74
2022/06/29 09:46:11;;;;;;;3.28;2.47;;;;;;;14.37;81.82;101514.53;4946367;29;20090;-75
2022/06/29 09:48:40;;;;;;;2.67;1.75;;;;;;;14.36;81.75;101516.28;4931245;29;20095;-75
2022/06/29 09:53:56;;;;;;;2.65;1.58;;;;;;;14.40;80.65;101519.81;4935619;29;20224;-74
2022/06/29 09:56:29;;;;;;;2.28;1.65;;;;;;;14.43;80.82;101523.41;4926524;29;20502;-74
2022/06/29 09:59:00;;;;;;;3.63;1.73;;;;;;;14.48;80.88;101523.50;4939559;29;20047;-74
2022/06/29 10:04:16;;;;;;;3.33;1.60;;;;;;;14.51;80.74;101520.09;4945335;29;20070;-74
2022/06/29 10:06:45;;;;;;;3.47;1.98;;;;;;;14.51;81.57;101522.69;4932880;29;20083;-73
2022/06/29 10:09:14;;;;;;;2.92;1.63;;;;;;;14.52;81.71;101524.44;4932826;29;20288;-74
2022/06/29 10:15:01;;;;;;;2.90;1.40;;;;;;;14.54;82.21;101521.06;4930699;29;20426;-74
2022/06/29 10:17:42;;;;;;;2.72;1.67;;;;;;;14.57;82.17;101521.19;4935664;29;20060;-74
2022/06/29 10:20:32;;;;;;;3.47;1.58;;;;;;;14.61;82.32;101524.72;4929882;29;20103;-75
2022/06/29 10:23:00;;;;;;;3.88;1.60;;;;;;;14.64;81.79;101524.81;4934295;29;20107;-75
2022/06/29 10:25:29;;;;;;;1.83;1.65;;;;;;;14.69;82.37;101528.41;4936650;28;20048;-75
2022/06/29 10:28:13;;;;;;;1.52;1.17;;;;;;;14.73;81.10;101532.88;4939171;28;20080;-74
2022/06/29 10:30:44;;;;;;;1.73;1.17;;;;;;;14.76;79.69;101527.72;4929503;29;20044;-74
2022/06/29 10:33:34;;;;;;;5.40;1.30;;;;;;;14.78;79.48;101533.84;4933688;29;20052;-74
2022/06/29 10:36:06;;;;;;;2.72;1.23;;;;;;;14.81;79.14;101522.63;4933859;29;20102;-74
2022/06/29 10:39:12;;;;;;;2.92;1.92;;;;;;;14.83;79.46;101532.22;4923725;29;20059;-74
2022/06/29 10:45:03;;;;;;;4.88;1.58;;;;;;;14.91;79.50;101534.13;4931118;29;20391;-74
2022/06/29 10:47:33;;;;;;;1.63;1.13;;;;;;;14.93;79.66;101532.44;4900404;29;20079;-74
2022/06/29 10:50:26;;;;;;;3.78;1.20;;;;;;;14.94;78.65;101534.22;4938962;29;20050;-74
2022/06/29 10:52:56;;;;;;;2.42;1.30;;;;;;;14.91;78.51;101527.19;4903119;29;20055;-74
2022/06/29 10:55:27;;;;;;;2.33;1.40;;;;;;;14.96;78.71;101527.34;4933051;29;20055;-74
2022/06/29 10:57:57;;;;;;;1.50;1.13;;;;;;;14.96;78.24;101537.75;4930913;29;20087;-74
2022/06/29 11:00:27;;;;;;;4.07;1.13;;;;;;;14.94;77.76;101523.81;4932524;29;20293;-74
2022/06/29 11:02:58;;;;;;;1.25;1.02;;;;;;;14.93;77.98;101528.13;4932604;29;20103;-74
2022/06/29 11:05:27;;;;;;;2.83;1.30;;;;;;;14.95;77.75;101526.44;4931599;29;20768;-73
2022/06/29 11:13:34;;;;;;;3.22;1.20;;;;;;;15.00;78.14;101522.22;4924189;29;20266;-73
2022/06/29 11:16:03;;;;;;;2.00;1.13;;;;;;;15.00;77.92;101524.84;4929086;29;20048;-73
2022/06/29 11:18:34;;;;;;;2.05;1.27;;;;;;;14.98;78.06;101515.19;4940217;29;20048;-73
2022/06/29 11:21:04;;;;;;;2.67;1.30;;;;;;;14.96;78.22;101522.13;4938579;29;20044;-73
2022/06/29 11:23:34;;;;;;;1.95;1.05;;;;;;;14.95;78.17;101515.13;4926986;29;20048;-73
2022/06/29 11:26:03;;;;;;;3.00;1.33;;;;;;;14.95;78.33;101520.34;4924991;28;20052;-74
2022/06/29 11:28:32;;;;;;;3.47;1.38;;;;;;;14.93;78.28;101524.63;4918539;29;20051;-74
2022/06/29 11:31:02;;;;;;;2.95;1.35;;;;;;;14.93;78.75;101527.25;4931744;29;20055;-74
2022/06/29 11:33:34;;;;;;;4.32;1.33;;;;;;;14.93;79.61;101514.22;4921433;29;20059;-74
2022/06/29 11:36:06;;;;;;;3.30;1.42;;;;;;;14.94;79.63;101522.06;4919542;29;20116;-74
2022/06/29 11:38:38;;;;;;;4.07;1.50;;;;;;;14.97;80.04;101534.28;4944252;29;20109;-78
2022/06/29 11:41:12;;;;;;;2.35;1.50;;;;;;;14.98;81.78;101536.03;4933303;29;20526;-79
2022/06/29 11:43:41;;;;;;;3.53;1.50;;;;;;;14.97;81.85;101529.09;4931878;29;20304;-78
2022/06/29 11:46:20;;;;;;;1.85;1.25;;;;;;;14.94;81.88;101529.88;4917453;29;20044;-77
2022/06/29 11:51:51;;;;;;;3.20;1.52;;;;;;;14.93;82.91;101542.88;4937378;29;20526;-77
2022/06/29 11:54:19;;;;;;;5.85;1.30;;;;;;;14.86;82.84;101537.50;4918051;29;20054;-74
2022/06/29 11:56:48;;;;;;;3.83;1.52;;;;;;;14.82;82.67;101540.91;4909219;29;20123;-73
2022/06/29 11:59:18;;;;;;;3.33;1.42;;;;;;;14.78;83.62;101548.59;4927521;29;20095;-74